Time;durP1;ratioP1;P1;durP2;ratioP2;P2;SDS_P1;SDS_P2;PMS_P1;PMS_P2;Temp;Humidity;BMP_temperature;BMP_pressure;BME280_temperature;BME280_humidity;BME280_pressure;Samples;Min_cycle;Max_cycle;Signal;HPM_P1;HPM_P2
2022/01/19 00:00:50;;;;;;;25.00;9.50;;;1.60;99.90;;;;;;4949678;28;20030;-67
2022/01/19 00:03:16;;;;;;;24.15;9.35;;;1.60;99.90;;;;;;4950106;29;20019;-67
2022/01/19 00:05:42;;;;;;;24.02;9.18;;;1.60;99.90;;;;;;4948044;28;20611;-67
2022/01/19 00:08:08;;;;;;;28.13;9.80;;;1.60;99.90;;;;;;4949927;28;20097;-67
2022/01/19 00:10:34;;;;;;;25.83;9.45;;;1.50;99.90;;;;;;4948083;29;20047;-66
2022/01/19 00:13:00;;;;;;;26.40;9.45;;;1.50;99.90;;;;;;4932999;28;20465;-65
2022/01/19 00:15:28;;;;;;;25.02;9.57;;;1.50;99.90;;;;;;4949260;28;20027;-67
2022/01/19 00:17:56;;;;;;;27.33;9.73;;;1.40;99.90;;;;;;4949927;28;20461;-68
2022/01/19 00:20:22;;;;;;;21.70;9.13;;;1.40;99.90;;;;;;4942518;28;20043;-66
2022/01/19 00:22:49;;;;;;;19.75;8.38;;;1.40;99.90;;;;;;4948161;28;20403;-66
2022/01/19 00:25:15;;;;;;;23.40;9.13;;;1.30;99.90;;;;;;4950245;28;20085;-66
2022/01/19 00:27:40;;;;;;;25.27;8.95;;;1.40;99.90;;;;;;4949013;28;20110;-69
2022/01/19 00:30:07;;;;;;;24.30;9.27;;;1.40;99.90;;;;;;4949674;28;20035;-67
2022/01/19 00:32:33;;;;;;;25.10;9.88;;;1.30;99.90;;;;;;4948979;28;20031;-66
2022/01/19 00:34:59;;;;;;;20.60;8.30;;;1.30;99.90;;;;;;4949915;28;20035;-68
2022/01/19 00:37:25;;;;;;;21.88;9.05;;;1.30;99.90;;;;;;4949512;28;20042;-65
2022/01/19 00:39:51;;;;;;;23.20;8.75;;;1.30;99.90;;;;;;4949470;28;20070;-66
2022/01/19 00:42:17;;;;;;;25.80;9.95;;;1.30;99.90;;;;;;4949879;28;20111;-67
2022/01/19 00:44:43;;;;;;;23.10;9.57;;;1.30;99.90;;;;;;4931863;29;20051;-68
2022/01/19 00:47:09;;;;;;;24.67;9.35;;;1.30;99.90;;;;;;4948209;28;20035;-67
2022/01/19 00:49:34;;;;;;;27.98;9.65;;;1.20;99.90;;;;;;4947477;28;20051;-68
2022/01/19 00:52:00;;;;;;;27.02;9.82;;;1.20;99.90;;;;;;4948481;29;20071;-66
2022/01/19 00:54:26;;;;;;;22.27;9.68;;;1.20;99.90;;;;;;4951154;28;20712;-67
2022/01/19 00:56:51;;;;;;;22.40;9.75;;;1.20;99.90;;;;;;4953058;29;20027;-68
2022/01/19 00:59:17;;;;;;;29.63;9.77;;;1.20;99.90;;;;;;4959551;28;20437;-68
2022/01/19 01:01:42;;;;;;;28.05;9.25;;;1.20;99.90;;;;;;4952346;29;20460;-67
2022/01/19 01:04:08;;;;;;;21.00;8.57;;;1.20;99.90;;;;;;4952785;28;20479;-67
2022/01/19 01:06:34;;;;;;;26.10;9.13;;;1.20;99.90;;;;;;4951038;28;20058;-68
2022/01/19 01:09:00;;;;;;;23.10;8.73;;;1.20;99.90;;;;;;4953530;28;20067;-66
2022/01/19 01:11:32;;;;;;;27.80;9.23;;;1.20;99.90;;;;;;4952632;28;20036;-68
2022/01/19 01:16:40;;;;;;;27.52;8.68;;;1.00;99.90;;;;;;4952758;28;20074;-68
2022/01/19 01:19:10;;;;;;;19.40;7.97;;;1.00;99.90;;;;;;4953524;28;20071;-68
2022/01/19 01:21:36;;;;;;;20.15;6.93;;;0.90;99.90;;;;;;4952401;28;20090;-68
2022/01/19 01:24:03;;;;;;;25.45;9.18;;;0.90;99.90;;;;;;4935812;29;20196;-70
2022/01/19 01:26:30;;;;;;;24.73;9.00;;;0.80;99.90;;;;;;4952257;28;20475;-67
2022/01/19 01:28:56;;;;;;;25.30;8.18;;;0.70;99.90;;;;;;4952899;28;20075;-67
2022/01/19 01:31:21;;;;;;;22.27;8.63;;;0.70;99.90;;;;;;4952229;29;20472;-68
2022/01/19 01:33:47;;;;;;;21.83;8.35;;;0.60;99.90;;;;;;4951708;29;20046;-68
2022/01/19 01:36:15;;;;;;;22.98;8.77;;;0.60;99.90;;;;;;4952960;28;20037;-68
2022/01/19 01:38:40;;;;;;;24.73;8.60;;;0.60;99.90;;;;;;4951646;28;20460;-68
2022/01/19 01:41:11;;;;;;;27.40;9.23;;;0.40;99.90;;;;;;4952316;28;20038;-68
2022/01/19 01:43:37;;;;;;;25.70;7.93;;;0.50;99.90;;;;;;4952045;28;20049;-68
2022/01/19 01:46:06;;;;;;;20.90;8.52;;;0.50;99.90;;;;;;4952313;29;20043;-68
2022/01/19 01:48:40;;;;;;;21.85;8.95;;;0.50;99.90;;;;;;4951559;28;20078;-67
2022/01/19 01:53:52;;;;;;;20.05;7.50;;;0.30;99.90;;;;;;4944582;28;20058;-69
2022/01/19 01:56:18;;;;;;;20.20;7.35;;;0.30;99.90;;;;;;4951211;28;20035;-68
2022/01/19 01:58:46;;;;;;;19.75;7.45;;;0.40;99.90;;;;;;4951413;28;20816;-68
2022/01/19 02:01:12;;;;;;;23.50;6.80;;;0.40;99.90;;;;;;4950427;28;20294;-67
2022/01/19 02:03:40;;;;;;;17.17;6.55;;;0.40;99.90;;;;;;4951494;28;20031;-67
2022/01/19 02:06:27;;;;;;;16.65;6.25;;;0.50;99.90;;;;;;4951451;28;20035;-68
2022/01/19 02:09:05;;;;;;;17.42;6.93;;;0.50;99.90;;;;;;4951393;28;20134;-67
2022/01/19 02:22:57;;;;;;;17.05;6.68;;;0.30;99.90;;;;;;4951223;28;20436;-68
2022/01/19 02:25:27;;;;;;;20.17;6.25;;;0.20;99.90;;;;;;4951543;28;20038;-67
2022/01/19 02:41:18;;;;;;;17.63;6.53;;;-0.10;99.90;;;;;;4946064;28;20085;-68
2022/01/19 02:43:49;;;;;;;25.98;7.22;;;-0.20;99.90;;;;;;4950477;28;20035;-68
2022/01/19 02:49:18;;;;;;;21.88;6.38;;;-0.20;99.90;;;;;;4950483;28;19956;-66
2022/01/19 02:51:45;;;;;;;25.05;8.00;;;-0.20;99.90;;;;;;4950682;28;20047;-67
2022/01/19 02:54:13;;;;;;;24.73;8.35;;;-0.10;99.90;;;;;;4956414;28;20033;-68
2022/01/19 02:56:41;;;;;;;26.88;9.15;;;-0.30;99.90;;;;;;4950243;28;20059;-68
2022/01/19 02:59:18;;;;;;;28.38;8.45;;;-0.20;99.90;;;;;;4951175;28;20062;-67
2022/01/19 03:09:42;;;;;;;22.67;8.50;;;-0.50;99.90;;;;;;4950380;28;20108;-67
2022/01/19 03:12:08;;;;;;;23.17;8.75;;;-0.50;99.90;;;;;;4951081;28;20039;-67
2022/01/19 03:14:34;;;;;;;27.40;9.85;;;-0.60;99.90;;;;;;4950802;28;20662;-66
2022/01/19 03:17:00;;;;;;;24.08;8.75;;;-0.60;99.90;;;;;;4949173;28;20039;-66
2022/01/19 03:19:27;;;;;;;25.48;8.50;;;-0.70;99.90;;;;;;4951060;28;20043;-65
2022/01/19 03:21:53;;;;;;;27.17;9.77;;;-0.70;99.90;;;;;;4949472;28;20065;-66
2022/01/19 03:24:19;;;;;;;25.42;8.88;;;-0.60;99.90;;;;;;4950761;29;20474;-65
2022/01/19 03:26:46;;;;;;;26.67;9.50;;;-0.60;99.90;;;;;;4949984;28;20042;-65
2022/01/19 03:29:12;;;;;;;23.65;8.85;;;-0.70;99.90;;;;;;4943442;28;20118;-65
2022/01/19 03:31:38;;;;;;;22.95;9.27;;;-0.70;99.90;;;;;;4949679;28;20039;-65
2022/01/19 03:34:05;;;;;;;24.00;8.55;;;-0.70;99.90;;;;;;4948934;28;20464;-66
2022/01/19 03:36:32;;;;;;;22.88;8.57;;;-0.70;99.90;;;;;;4950444;28;20055;-65
2022/01/19 03:38:57;;;;;;;28.95;9.35;;;-0.80;99.90;;;;;;4949706;28;20042;-66
2022/01/19 03:41:23;;;;;;;23.33;9.65;;;-0.80;99.90;;;;;;4950268;28;20031;-66
2022/01/19 03:43:49;;;;;;;25.33;8.95;;;-0.80;99.90;;;;;;4950099;29;20126;-66
2022/01/19 03:46:16;;;;;;;26.73;9.48;;;-0.80;99.90;;;;;;4950124;28;20035;-65
2022/01/19 03:48:58;;;;;;;28.00;9.55;;;-0.80;99.90;;;;;;4949391;28;20660;-65
2022/01/19 03:51:24;;;;;;;23.30;8.60;;;-0.80;99.90;;;;;;4949889;28;20506;-66
2022/01/19 03:53:51;;;;;;;27.45;9.60;;;-0.90;99.90;;;;;;4949896;28;20468;-65
2022/01/19 03:56:17;;;;;;;22.65;8.60;;;-1.00;99.90;;;;;;4949899;28;20034;-66
2022/01/19 03:58:43;;;;;;;26.15;8.85;;;-1.00;99.90;;;;;;4949485;28;20035;-65
2022/01/19 04:01:10;;;;;;;29.33;9.77;;;-1.00;99.90;;;;;;4949938;28;20696;-66
2022/01/19 04:06:40;;;;;;;28.27;9.07;;;-1.00;99.90;;;;;;4948788;28;20047;-65
2022/01/19 04:09:06;;;;;;;26.13;9.38;;;-1.10;99.90;;;;;;4948520;28;20047;-65
2022/01/19 04:11:32;;;;;;;23.45;9.55;;;-1.10;99.90;;;;;;4950444;28;20644;-66
2022/01/19 04:16:29;;;;;;;21.65;7.78;;;-1.20;99.90;;;;;;4945022;28;20476;-65
2022/01/19 04:19:07;;;;;;;21.58;7.80;;;-1.20;99.90;;;;;;4948453;28;20039;-65
2022/01/19 04:21:33;;;;;;;24.27;7.13;;;-1.20;99.90;;;;;;4948334;28;20212;-65
2022/01/19 04:24:00;;;;;;;22.02;7.13;;;-1.10;99.90;;;;;;4948336;29;20179;-65
2022/01/19 04:26:25;;;;;;;24.58;6.20;;;-1.10;99.90;;;;;;4951570;28;20023;-65
2022/01/19 04:28:51;;;;;;;21.35;6.40;;;-1.10;99.90;;;;;;4951208;28;20082;-65
2022/01/19 04:31:16;;;;;;;19.92;7.53;;;-1.00;99.90;;;;;;4950198;29;20027;-65
2022/01/19 04:33:44;;;;;;;26.42;8.60;;;-1.10;99.90;;;;;;4957753;28;20054;-66
2022/01/19 04:36:31;;;;;;;25.25;8.05;;;-1.20;99.90;;;;;;4953495;28;20039;-65
2022/01/19 05:03:23;;;;;;;20.95;7.18;;;-1.30;99.90;;;;;;4956511;28;20037;-67
2022/01/19 05:05:56;;;;;;;24.50;8.70;;;-1.30;99.90;;;;;;4945936;28;20476;-66
2022/01/19 05:08:45;;;;;;;27.73;7.85;;;-1.30;99.90;;;;;;4953347;28;20059;-65
2022/01/19 05:13:54;;;;;;;22.25;6.78;;;-1.30;99.90;;;;;;4948778;28;20035;-67
2022/01/19 05:16:21;;;;;;;19.55;7.03;;;-1.30;99.90;;;;;;4951686;28;20032;-65
2022/01/19 05:18:48;;;;;;;18.58;7.18;;;-1.40;99.90;;;;;;4954644;28;20721;-66
2022/01/19 05:21:15;;;;;;;25.25;7.93;;;-1.30;99.90;;;;;;4955632;28;20039;-69
2022/01/19 05:23:41;;;;;;;28.65;9.23;;;-1.30;99.90;;;;;;4951978;28;20126;-69
2022/01/19 05:26:07;;;;;;;23.95;7.75;;;-1.40;99.90;;;;;;4957415;28;20102;-66
2022/01/19 05:28:32;;;;;;;24.58;8.25;;;-1.50;99.90;;;;;;4953864;28;20882;-65
2022/01/19 05:30:58;;;;;;;26.70;9.02;;;-1.50;99.90;;;;;;4951885;28;20098;-65
2022/01/19 05:33:24;;;;;;;22.02;7.50;;;-1.70;99.90;;;;;;4952518;28;20062;-67
2022/01/19 05:35:49;;;;;;;24.98;7.95;;;-1.70;99.90;;;;;;4952170;28;20440;-68
2022/01/19 05:38:15;;;;;;;22.83;6.60;;;-1.80;99.90;;;;;;4935378;29;20388;-67
2022/01/19 05:40:41;;;;;;;25.38;9.15;;;-1.70;99.90;;;;;;4958858;28;20038;-68
2022/01/19 05:43:06;;;;;;;25.13;7.55;;;-1.60;99.90;;;;;;4951346;28;20057;-68
2022/01/19 05:45:32;;;;;;;19.67;6.88;;;-1.40;99.90;;;;;;4952052;28;20702;-69
2022/01/19 05:47:58;;;;;;;21.85;6.45;;;-1.20;99.90;;;;;;4951802;28;20396;-69
2022/01/19 05:50:24;;;;;;;22.20;7.85;;;-1.20;99.90;;;;;;4951383;29;20058;-69
2022/01/19 05:52:50;;;;;;;21.33;7.15;;;-1.40;99.90;;;;;;4950714;28;20043;-65
2022/01/19 05:55:16;;;;;;;27.42;8.38;;;-1.50;99.90;;;;;;4960323;28;20031;-65
2022/01/19 05:57:42;;;;;;;23.90;8.23;;;-1.40;99.90;;;;;;4952199;28;20074;-66
2022/01/19 06:00:09;;;;;;;26.10;8.93;;;-1.40;99.90;;;;;;4946335;28;20035;-64
2022/01/19 06:02:36;;;;;;;25.50;7.85;;;-1.30;99.90;;;;;;4951348;28;20036;-64
2022/01/19 06:05:03;;;;;;;30.30;9.55;;;-1.30;99.90;;;;;;4951393;28;20035;-64
2022/01/19 06:07:30;;;;;;;26.55;8.90;;;-1.30;99.90;;;;;;4951429;28;20047;-65
2022/01/19 06:10:05;;;;;;;29.40;10.15;;;-1.20;99.90;;;;;;4964491;28;20070;-67
2022/01/19 06:12:31;;;;;;;29.63;8.95;;;-1.10;99.90;;;;;;4952238;28;20030;-68
2022/01/19 06:14:57;;;;;;;29.10;9.75;;;-1.00;99.90;;;;;;4950949;28;20027;-64
2022/01/19 06:17:22;;;;;;;22.65;8.80;;;-0.90;99.90;;;;;;4950839;28;20682;-63
2022/01/19 06:19:48;;;;;;;31.05;10.25;;;-0.90;99.90;;;;;;4957985;28;20038;-68
2022/01/19 06:22:20;;;;;;;30.65;9.68;;;-0.80;99.90;;;;;;4951481;29;20151;-70
2022/01/19 06:24:46;;;;;;;27.63;9.52;;;-0.80;99.90;;;;;;4958338;28;20150;-68
2022/01/19 06:27:11;;;;;;;26.50;8.60;;;-0.80;99.90;;;;;;4958586;28;20077;-64
2022/01/19 06:29:37;;;;;;;24.33;8.00;;;-0.70;99.90;;;;;;4949820;28;20043;-65
2022/01/19 06:32:04;;;;;;;25.30;7.45;;;-0.70;99.90;;;;;;4950501;28;20045;-65
2022/01/19 06:34:29;;;;;;;19.77;6.75;;;-0.80;99.90;;;;;;4950362;28;20087;-63
2022/01/19 06:36:55;;;;;;;25.55;8.45;;;-0.90;99.90;;;;;;4950581;28;20413;-63
2022/01/19 06:39:21;;;;;;;25.63;8.90;;;-0.90;99.90;;;;;;4951173;28;20039;-64
2022/01/19 06:41:47;;;;;;;26.10;8.93;;;-0.70;99.90;;;;;;4932524;29;20035;-64
2022/01/19 06:44:14;;;;;;;25.10;9.00;;;-0.60;99.90;;;;;;4933183;29;20500;-63
2022/01/19 06:46:43;;;;;;;23.65;8.57;;;-0.60;99.90;;;;;;4951395;29;20035;-64
2022/01/19 06:49:09;;;;;;;25.90;9.25;;;-0.50;99.90;;;;;;4950841;28;20027;-63
2022/01/19 06:51:35;;;;;;;23.42;8.55;;;-0.50;99.90;;;;;;4950947;28;20038;-64
2022/01/19 06:54:00;;;;;;;20.33;7.15;;;-0.40;99.90;;;;;;4949919;28;20060;-64
2022/01/19 06:56:26;;;;;;;24.27;7.75;;;-0.50;99.90;;;;;;4950606;28;20121;-63
2022/01/19 06:58:52;;;;;;;22.30;7.93;;;-0.50;99.90;;;;;;4950334;28;20334;-65
2022/01/19 07:01:17;;;;;;;30.63;8.73;;;-0.60;99.90;;;;;;4946926;29;20609;-65
2022/01/19 07:03:43;;;;;;;29.55;9.20;;;-0.70;99.90;;;;;;4950687;28;20481;-64
2022/01/19 07:06:11;;;;;;;30.10;10.63;;;-0.60;99.90;;;;;;4949680;28;20023;-65
2022/01/19 07:08:38;;;;;;;37.50;12.77;;;-0.60;99.90;;;;;;4949868;28;20264;-66
2022/01/19 07:11:04;;;;;;;43.58;12.65;;;-0.60;99.90;;;;;;4949631;28;20035;-65
2022/01/19 07:13:29;;;;;;;38.65;12.98;;;-0.50;99.90;;;;;;4950311;28;20034;-67
2022/01/19 07:15:55;;;;;;;33.05;12.15;;;-0.50;99.90;;;;;;4949827;28;20519;-67
2022/01/19 07:18:21;;;;;;;32.47;11.98;;;-0.60;99.90;;;;;;4950195;28;20023;-65
2022/01/19 07:20:46;;;;;;;30.85;10.98;;;-0.60;99.90;;;;;;4950405;28;20594;-66
2022/01/19 07:23:12;;;;;;;30.40;9.98;;;-0.50;99.90;;;;;;4948676;28;20598;-66
2022/01/19 07:25:38;;;;;;;28.48;11.18;;;-0.50;99.90;;;;;;4948852;28;20114;-65
2022/01/19 07:28:08;;;;;;;35.10;10.70;;;-0.50;99.90;;;;;;4949309;29;20035;-67
2022/01/19 07:30:34;;;;;;;32.40;10.18;;;-0.60;99.90;;;;;;4951548;28;20043;-66
2022/01/19 07:33:00;;;;;;;23.48;8.35;;;-0.60;99.90;;;;;;4955146;28;20059;-65
2022/01/19 07:35:26;;;;;;;26.33;9.25;;;-0.70;99.90;;;;;;4950712;28;20027;-65
2022/01/19 07:37:52;;;;;;;29.60;10.13;;;-0.80;99.90;;;;;;4950104;28;20047;-68
2022/01/19 07:40:18;;;;;;;32.58;10.93;;;-0.80;99.90;;;;;;4950123;28;20357;-64
2022/01/19 07:42:44;;;;;;;29.90;11.13;;;-0.70;99.90;;;;;;4950173;28;20037;-66
2022/01/19 07:45:10;;;;;;;33.65;10.82;;;-0.60;99.90;;;;;;4947693;28;20050;-63
2022/01/19 07:47:35;;;;;;;31.42;11.07;;;-0.50;99.90;;;;;;4942027;29;20042;-64
2022/01/19 07:50:01;;;;;;;28.60;11.13;;;-0.40;99.90;;;;;;4948931;28;20408;-64
2022/01/19 07:52:27;;;;;;;34.05;12.35;;;-0.40;99.90;;;;;;4950245;28;20145;-64
2022/01/19 07:54:53;;;;;;;34.47;12.05;;;-0.40;99.90;;;;;;4947716;28;20039;-64
2022/01/19 07:57:19;;;;;;;34.28;11.77;;;-0.40;99.90;;;;;;4949251;28;20027;-63
2022/01/19 07:59:45;;;;;;;40.80;13.43;;;-0.50;99.90;;;;;;4949391;28;20039;-65
2022/01/19 08:02:12;;;;;;;43.47;14.27;;;-0.40;99.90;;;;;;4949076;28;20086;-64
2022/01/19 08:04:37;;;;;;;48.97;15.85;;;-0.30;99.90;;;;;;4948391;28;20472;-64
2022/01/19 08:07:03;;;;;;;47.08;16.10;;;-0.30;99.90;;;;;;4949206;28;20038;-64
2022/01/19 08:09:31;;;;;;;52.15;16.05;;;-0.20;99.90;;;;;;4949818;28;20162;-65
2022/01/19 08:11:57;;;;;;;54.22;15.63;;;-0.10;99.90;;;;;;4952339;28;20023;-66
2022/01/19 08:14:24;;;;;;;46.85;14.85;;;-0.10;99.90;;;;;;4950335;28;20046;-64
2022/01/19 08:16:51;;;;;;;45.40;14.88;;;0.00;99.90;;;;;;4948279;28;20043;-64
2022/01/19 08:19:17;;;;;;;52.33;15.55;;;0.10;99.90;;;;;;4948571;28;20531;-66
2022/01/19 08:21:43;;;;;;;51.88;14.80;;;0.10;99.90;;;;;;4950733;28;20039;-64
2022/01/19 08:24:09;;;;;;;50.95;15.73;;;0.20;99.90;;;;;;4948549;28;20453;-65
2022/01/19 08:26:36;;;;;;;48.97;15.57;;;0.30;99.90;;;;;;4951572;28;20393;-65
2022/01/19 08:29:04;;;;;;;47.88;15.75;;;0.30;99.90;;;;;;4947242;28;20468;-65
2022/01/19 08:31:30;;;;;;;52.97;16.98;;;0.50;99.90;;;;;;4949725;28;20114;-64
2022/01/19 08:33:55;;;;;;;51.45;17.13;;;0.60;99.90;;;;;;4948666;28;20106;-63
2022/01/19 08:36:21;;;;;;;53.20;16.73;;;0.70;99.90;;;;;;4950107;28;20372;-63
2022/01/19 08:38:47;;;;;;;53.60;16.58;;;0.70;99.90;;;;;;4950119;28;20039;-65
2022/01/19 08:41:13;;;;;;;52.55;17.42;;;0.70;99.90;;;;;;4947689;28;20034;-65
2022/01/19 08:43:38;;;;;;;52.65;17.25;;;0.80;99.90;;;;;;4950144;28;20039;-65
2022/01/19 08:46:04;;;;;;;50.25;17.13;;;0.90;99.90;;;;;;4948130;28;20039;-66
2022/01/19 08:48:30;;;;;;;52.97;17.10;;;0.90;99.90;;;;;;4950055;28;20035;-64
2022/01/19 08:50:55;;;;;;;43.80;14.98;;;1.00;99.90;;;;;;4946950;28;20043;-66
2022/01/19 08:53:21;;;;;;;49.95;16.63;;;1.10;99.90;;;;;;4949601;28;20023;-67
2022/01/19 08:55:48;;;;;;;48.03;15.95;;;1.10;99.90;;;;;;4948776;28;20035;-66
2022/01/19 08:58:14;;;;;;;53.10;17.08;;;1.10;99.90;;;;;;4949975;28;20657;-66
2022/01/19 09:00:42;;;;;;;50.17;16.30;;;1.20;99.90;;;;;;4952135;28;20043;-68
2022/01/19 09:03:08;;;;;;;51.42;16.45;;;1.20;99.90;;;;;;4948846;28;20039;-67
2022/01/19 09:05:34;;;;;;;52.47;16.88;;;1.30;99.90;;;;;;4948948;29;20547;-69
2022/01/19 09:08:00;;;;;;;54.92;15.40;;;1.20;99.90;;;;;;4949047;28;20522;-66
2022/01/19 09:10:26;;;;;;;55.30;16.48;;;1.20;99.90;;;;;;4949274;28;20042;-64
2022/01/19 09:12:52;;;;;;;44.35;14.80;;;1.30;99.90;;;;;;4949776;28;20110;-65
2022/01/19 09:15:18;;;;;;;46.45;16.42;;;1.40;99.90;;;;;;4949807;28;20110;-67
2022/01/19 09:17:44;;;;;;;42.42;15.02;;;1.40;99.90;;;;;;4953409;28;20094;-64
2022/01/19 09:20:12;;;;;;;46.53;14.15;;;1.50;99.90;;;;;;4950488;28;20086;-69
2022/01/19 09:22:38;;;;;;;42.83;15.68;;;1.50;99.90;;;;;;4952865;28;20818;-64
2022/01/19 09:25:06;;;;;;;42.33;14.10;;;1.50;99.90;;;;;;4951795;28;20107;-63
2022/01/19 09:27:32;;;;;;;51.35;15.20;;;1.60;99.90;;;;;;4953195;28;20027;-66
2022/01/19 09:29:58;;;;;;;47.90;14.50;;;1.70;99.90;;;;;;4950030;28;20043;-71
2022/01/19 09:32:24;;;;;;;49.60;16.15;;;1.70;99.90;;;;;;4953046;28;20400;-67
2022/01/19 09:34:56;;;;;;;44.35;14.52;;;1.70;99.90;;;;;;4956666;28;20055;-66
2022/01/19 09:37:23;;;;;;;46.75;15.27;;;1.90;99.90;;;;;;4952481;28;20023;-67
2022/01/19 09:39:49;;;;;;;40.67;14.00;;;1.80;99.90;;;;;;4952517;28;20118;-68
2022/01/19 09:42:16;;;;;;;43.33;14.80;;;1.80;99.90;;;;;;4951584;28;20031;-69
2022/01/19 09:44:41;;;;;;;43.10;15.13;;;1.80;99.90;;;;;;4952681;29;20106;-66
2022/01/19 09:47:07;;;;;;;44.60;15.65;;;1.80;99.90;;;;;;4951974;28;20122;-70
2022/01/19 09:49:34;;;;;;;45.13;14.40;;;2.00;99.90;;;;;;4952268;28;20045;-66
2022/01/19 09:52:00;;;;;;;43.55;15.10;;;2.10;99.90;;;;;;4951119;28;20035;-68
2022/01/19 09:54:29;;;;;;;47.90;14.20;;;2.10;99.90;;;;;;4951401;28;20031;-68
2022/01/19 09:56:56;;;;;;;51.50;17.13;;;1.90;99.90;;;;;;4952120;28;20476;-68
2022/01/19 09:59:22;;;;;;;56.55;16.67;;;2.10;99.90;;;;;;4951085;28;20063;-67
2022/01/19 10:01:54;;;;;;;43.17;14.77;;;2.10;99.90;;;;;;4952644;28;20088;-68
2022/01/19 10:04:23;;;;;;;50.17;17.92;;;2.10;99.90;;;;;;4951085;28;20126;-69
2022/01/19 10:06:49;;;;;;;46.50;15.65;;;2.30;99.90;;;;;;4950438;28;20035;-68
2022/01/19 10:09:25;;;;;;;46.97;15.82;;;2.40;99.90;;;;;;4951092;28;20043;-67
2022/01/19 10:17:06;;;;;;;47.33;15.60;;;2.50;99.90;;;;;;4950627;28;20392;-70
2022/01/19 10:19:44;;;;;;;40.17;13.75;;;2.70;99.90;;;;;;4952029;28;20032;-66
2022/01/19 10:22:13;;;;;;;47.30;14.55;;;2.80;99.90;;;;;;4950965;28;20098;-70
2022/01/19 10:24:47;;;;;;;42.47;14.23;;;2.80;99.90;;;;;;4949680;29;20039;-66
2022/01/19 10:27:31;;;;;;;48.25;14.15;;;2.90;99.90;;;;;;4945205;28;20031;-68
2022/01/19 10:30:03;;;;;;;41.30;14.05;;;2.90;99.90;;;;;;4947101;28;20107;-70
2022/01/19 10:32:33;;;;;;;38.95;13.60;;;3.00;99.90;;;;;;4950784;28;20031;-69
2022/01/19 10:35:14;;;;;;;34.35;13.35;;;3.20;99.90;;;;;;4951129;28;20031;-71
2022/01/19 10:37:41;;;;;;;32.42;12.50;;;3.20;99.90;;;;;;4951260;28;20488;-67
2022/01/19 10:40:12;;;;;;;33.65;11.75;;;3.20;99.90;;;;;;4948366;28;20038;-67
2022/01/19 10:42:38;;;;;;;34.28;12.15;;;3.20;99.90;;;;;;4964664;28;20042;-68
2022/01/19 10:45:09;;;;;;;32.33;11.43;;;3.30;99.90;;;;;;4950278;28;20392;-68
2022/01/19 10:47:48;;;;;;;31.73;11.07;;;3.40;99.90;;;;;;4948975;28;20031;-67
2022/01/19 10:50:15;;;;;;;29.60;11.52;;;3.30;99.90;;;;;;4948654;28;20131;-68
2022/01/19 10:52:45;;;;;;;29.40;11.27;;;3.50;99.90;;;;;;4951366;28;20053;-66
2022/01/19 10:55:25;;;;;;;;;;;3.60;99.90;;;;;;4958789;28;20027;-66
2022/01/19 10:57:51;;;;;;;29.48;10.20;;;3.70;99.90;;;;;;4947475;28;19914;-64
2022/01/19 11:00:25;;;;;;;30.27;10.48;;;3.60;99.90;;;;;;4948309;28;20038;-64
2022/01/19 11:02:54;;;;;;;28.25;10.07;;;3.70;99.90;;;;;;4950349;28;20039;-65
2022/01/19 11:05:46;;;;;;;27.08;10.82;;;3.80;99.90;;;;;;4944556;28;20030;-66
2022/01/19 11:08:13;;;;;;;28.90;10.85;;;3.90;99.90;;;;;;4947020;28;20455;-66
2022/01/19 11:10:39;;;;;;;27.67;9.82;;;4.20;99.90;;;;;;4948151;28;20150;-65
2022/01/19 11:13:12;;;;;;;29.48;10.90;;;4.20;99.90;;;;;;4956681;28;20117;-67
2022/01/19 11:15:38;;;;;;;24.98;9.45;;;4.10;99.90;;;;;;4949363;28;20073;-65
2022/01/19 11:18:04;;;;;;;29.60;10.52;;;4.20;99.90;;;;;;4949549;28;20487;-67
2022/01/19 11:20:38;;;;;;;23.00;9.70;;;4.10;99.90;;;;;;4950134;28;20103;-66
2022/01/19 11:23:41;;;;;;;25.23;10.20;;;4.30;99.90;;;;;;4943675;28;20031;-70
2022/01/19 11:26:12;;;;;;;27.80;9.68;;;4.40;99.90;;;;;;4951359;28;20035;-65
2022/01/19 11:28:44;;;;;;;22.45;8.63;;;4.60;99.90;;;;;;4947110;28;20555;-64
2022/01/19 11:31:32;;;;;;;22.02;8.68;;;4.60;99.90;;;;;;4948670;28;20469;-63
2022/01/19 11:33:59;;;;;;;22.67;8.48;;;4.60;99.90;;;;;;4949425;28;20066;-65
2022/01/19 11:36:34;;;;;;;24.02;8.95;;;4.60;99.90;;;;;;4947142;28;20154;-65
2022/01/19 11:39:06;;;;;;;22.90;9.05;;;4.70;99.90;;;;;;4945773;28;20370;-65
2022/01/19 11:41:37;;;;;;;23.15;8.02;;;4.90;99.90;;;;;;4950326;28;20027;-64
2022/01/19 11:44:04;;;;;;;20.17;8.45;;;4.90;99.90;;;;;;4949610;28;20031;-68
2022/01/19 11:46:33;;;;;;;19.98;8.25;;;4.90;99.90;;;;;;4949931;28;20043;-65
2022/01/19 11:49:04;;;;;;;21.75;8.50;;;4.90;99.90;;;;;;4950007;29;20042;-65
2022/01/19 11:51:30;;;;;;;27.75;10.23;;;5.00;99.90;;;;;;4949545;28;20074;-65
2022/01/19 11:54:06;;;;;;;27.60;9.32;;;5.10;99.90;;;;;;4949731;28;20388;-67
2022/01/19 11:56:33;;;;;;;24.40;10.75;;;5.20;99.90;;;;;;4948316;28;20113;-66
2022/01/19 11:59:08;;;;;;;26.17;10.32;;;5.30;99.90;;;;;;4949502;28;20170;-65
2022/01/19 12:01:35;;;;;;;23.15;10.05;;;5.50;99.90;;;;;;4950043;28;20027;-66
2022/01/19 12:04:18;;;;;;;23.73;10.50;;;5.60;99.90;;;;;;4949607;28;20035;-66
2022/01/19 12:06:44;;;;;;;21.88;9.00;;;5.90;99.90;;;;;;4950090;28;20469;-66
2022/01/19 12:09:12;;;;;;;24.33;9.75;;;6.20;99.90;;;;;;4947173;28;20784;-68
2022/01/19 12:11:44;;;;;;;24.35;9.45;;;6.40;99.90;;;;;;4948895;28;20070;-66
2022/01/19 12:14:27;;;;;;;23.58;8.88;;;6.30;99.90;;;;;;4948919;28;20067;-69
2022/01/19 12:17:08;;;;;;;25.88;9.57;;;6.40;99.90;;;;;;4949816;28;20070;-69
2022/01/19 12:19:40;;;;;;;24.25;10.02;;;6.40;99.90;;;;;;4949545;28;20043;-67
2022/01/19 12:22:17;;;;;;;24.20;9.80;;;6.30;99.90;;;;;;4949582;28;20031;-70
2022/01/19 12:24:54;;;;;;;19.48;8.77;;;6.60;99.90;;;;;;4949101;28;20047;-68
2022/01/19 12:27:19;;;;;;;20.17;8.27;;;6.70;99.90;;;;;;4948612;28;20145;-67
2022/01/19 12:30:13;;;;;;;18.25;8.52;;;6.90;99.90;;;;;;4949164;28;20110;-65
2022/01/19 12:32:44;;;;;;;22.45;8.85;;;7.10;99.90;;;;;;4949712;28;20043;-66
2022/01/19 12:35:11;;;;;;;19.35;8.40;;;6.80;99.90;;;;;;4949724;28;20448;-67
2022/01/19 12:37:43;;;;;;;21.02;8.77;;;6.90;99.90;;;;;;4950191;28;20039;-66
2022/01/19 12:40:18;;;;;;;19.25;8.52;;;6.90;99.90;;;;;;4948631;28;20050;-69
2022/01/19 12:42:54;;;;;;;25.63;9.07;;;7.00;99.90;;;;;;4950286;28;20114;-65
2022/01/19 12:45:26;;;;;;;20.20;8.88;;;7.10;99.90;;;;;;4952645;28;20062;-66
2022/01/19 12:47:57;;;;;;;21.50;8.80;;;6.90;99.90;;;;;;4949836;28;20028;-65
2022/01/19 12:50:28;;;;;;;20.33;8.90;;;7.00;99.90;;;;;;4955130;28;20118;-66
2022/01/19 12:53:00;;;;;;;21.42;9.20;;;7.10;99.90;;;;;;4953479;29;20625;-66
2022/01/19 12:55:33;;;;;;;23.55;8.75;;;7.40;99.90;;;;;;4952355;28;20034;-67
2022/01/19 12:58:00;;;;;;;19.67;8.20;;;7.30;99.90;;;;;;4954234;28;20079;-63
2022/01/19 13:00:30;;;;;;;23.10;9.20;;;7.30;99.90;;;;;;4952285;28;20035;-63
2022/01/19 13:02:57;;;;;;;18.23;7.40;;;7.40;99.90;;;;;;4953432;28;20035;-63
2022/01/19 13:05:24;;;;;;;17.80;7.93;;;7.70;99.90;;;;;;4951804;28;20535;-63
2022/01/19 13:07:56;;;;;;;16.05;7.07;;;8.00;99.90;;;;;;4955902;28;20055;-64
2022/01/19 13:13:27;;;;;;;18.15;7.35;;;8.70;99.90;;;;;;4953146;28;20039;-62
2022/01/19 13:15:58;;;;;;;19.88;8.20;;;8.90;99.90;;;;;;4950718;28;20031;-63
2022/01/19 13:18:33;;;;;;;17.15;8.32;;;8.90;99.90;;;;;;4952101;28;20039;-63
2022/01/19 13:21:11;;;;;;;17.55;7.80;;;9.00;99.90;;;;;;4952429;28;20031;-63
2022/01/19 13:23:53;;;;;;;18.23;8.55;;;9.30;99.90;;;;;;4952221;28;20031;-63
2022/01/19 13:26:20;;;;;;;19.73;8.52;;;9.30;99.90;;;;;;4951963;28;20078;-64
2022/01/19 13:28:46;;;;;;;21.10;9.40;;;9.00;99.90;;;;;;4950068;28;20082;-62
2022/01/19 13:31:13;;;;;;;19.23;8.43;;;8.90;99.90;;;;;;4948868;28;20038;-63
2022/01/19 13:33:40;;;;;;;17.48;8.82;;;9.00;99.90;;;;;;4952065;28;20043;-63
2022/01/19 13:36:07;;;;;;;22.85;9.35;;;9.20;99.90;;;;;;4947286;28;20039;-64
2022/01/19 13:38:33;;;;;;;22.08;9.55;;;8.90;99.90;;;;;;4944470;28;20592;-62
2022/01/19 13:41:05;;;;;;;18.92;9.32;;;8.70;99.90;;;;;;4950724;28;20031;-64
2022/01/19 13:43:38;;;;;;;19.88;9.07;;;8.80;99.90;;;;;;4950425;28;20046;-64
2022/01/19 13:46:18;;;;;;;20.52;9.50;;;8.80;99.90;;;;;;4950829;28;20118;-64
2022/01/19 13:48:46;;;;;;;20.50;8.32;;;8.70;99.90;;;;;;4950255;28;20198;-65
2022/01/19 13:51:14;;;;;;;22.13;9.40;;;7.70;99.90;;;;;;4942789;28;20023;-64
2022/01/19 13:53:53;;;;;;;21.85;9.05;;;7.10;99.90;;;;;;4947871;28;20086;-63
2022/01/19 13:56:37;;;;;;;18.67;8.82;;;6.50;99.90;;;;;;4942725;29;20031;-63
2022/01/19 13:59:13;;;;;;;17.65;8.32;;;6.10;99.90;;;;;;4949300;28;20482;-61
2022/01/19 14:02:05;;;;;;;21.90;9.15;;;5.90;99.90;;;;;;4950011;28;20038;-62
2022/01/19 14:04:34;;;;;;;23.17;9.07;;;5.70;99.90;;;;;;4939783;28;20150;-64
2022/01/19 14:07:14;;;;;;;25.42;9.95;;;5.60;99.90;;;;;;4947988;28;20035;-63
2022/01/19 14:09:40;;;;;;;17.60;6.75;;;5.30;99.90;;;;;;4948268;28;20126;-63